createdAt,value
2018-06-05T00:00:56.400Z,88.22
2018-06-05T00:03:26.277Z,88.88
2018-06-05T00:05:56.233Z,89.46
2018-06-05T00:08:26.146Z,89.00
2018-06-05T00:10:56.085Z,89.04
2018-06-05T00:13:25.757Z,88.29
2018-06-05T00:15:55.678Z,88.15
2018-06-05T00:18:25.512Z,87.28
2018-06-05T00:20:55.061Z,86.41
2018-06-05T00:23:24.911Z,85.95
2018-06-05T00:25:54.851Z,84.54
2018-06-05T00:28:24.664Z,83.57
2018-06-05T00:30:54.304Z,83.12
2018-06-05T00:33:24.497Z,83.57
2018-06-05T00:35:54.203Z,84.09
2018-06-05T00:38:24.106Z,84.07
2018-06-05T00:40:53.890Z,84.56
2018-06-05T00:43:23.667Z,84.82
2018-06-05T00:45:54.124Z,84.69
2018-06-05T00:48:24.065Z,84.01
2018-06-05T00:50:54.068Z,85.62
2018-06-05T00:53:23.711Z,84.66
2018-06-05T00:55:53.470Z,84.34
2018-06-05T00:58:23.183Z,83.13
2018-06-05T01:00:52.965Z,82.31
2018-06-05T01:03:22.985Z,81.97
2018-06-05T01:05:52.803Z,81.12
2018-06-05T01:08:22.675Z,81.86
2018-06-05T01:10:52.761Z,81.48
2018-06-05T01:13:22.335Z,81.96
2018-06-05T01:15:52.073Z,81.65
2018-06-05T01:18:22.079Z,82.05
2018-06-05T01:20:51.835Z,81.62
2018-06-05T01:23:27.959Z,82.38
2018-06-05T01:25:57.551Z,82.79
2018-06-05T01:28:27.220Z,83.64
2018-06-05T01:30:57.074Z,83.65
2018-06-05T01:33:26.784Z,84.16
2018-06-05T01:35:56.602Z,84.65
2018-06-05T01:38:26.617Z,83.89
2018-06-05T01:40:56.548Z,83.79
2018-06-05T01:43:26.342Z,84.56
2018-06-05T01:45:56.871Z,84.01
2018-06-05T01:48:26.808Z,83.91
2018-06-05T01:50:56.578Z,83.21
2018-06-05T01:53:27.449Z,83.08
2018-06-05T01:55:57.360Z,82.87
2018-06-05T01:58:27.102Z,82.42
2018-06-05T02:00:57.015Z,82.98
2018-06-05T02:03:26.695Z,83.23
2018-06-05T02:05:56.360Z,82.95
2018-06-05T02:08:26.319Z,83.24
2018-06-05T02:10:56.117Z,82.58
2018-06-05T02:13:25.851Z,82.89
2018-06-05T02:15:55.749Z,82.61
2018-06-05T02:18:25.501Z,82.48
2018-06-05T02:20:56.846Z,82.77
2018-06-05T02:23:26.552Z,83.16
2018-06-05T02:25:56.423Z,82.86
2018-06-05T02:28:26.461Z,83.87
2018-06-05T02:30:59.661Z,84.41
2018-06-05T02:33:29.594Z,83.49
2018-06-05T02:35:59.424Z,84.41
2018-06-05T02:38:29.400Z,84.00
2018-06-05T02:40:59.197Z,83.89
2018-06-05T02:43:28.968Z,85.36
2018-06-05T02:45:58.948Z,85.30
2018-06-05T02:48:28.652Z,85.63
2018-06-05T02:50:58.440Z,86.06
2018-06-05T02:53:28.235Z,85.90
2018-06-05T02:55:58.279Z,85.67
2018-06-05T02:58:28.292Z,86.09
2018-06-05T03:00:57.876Z,85.58
2018-06-05T03:05:55.557Z,85.71
2018-06-05T03:08:25.323Z,85.61
2018-06-05T03:10:56.420Z,85.57
2018-06-05T03:13:25.979Z,84.66
2018-06-05T03:15:55.967Z,84.91
2018-06-05T03:18:25.789Z,84.77
2018-06-05T03:20:55.889Z,84.26
2018-06-05T03:23:25.612Z,84.01
2018-06-05T03:25:56.536Z,84.00
2018-06-05T03:28:26.295Z,84.23
2018-06-05T03:30:56.559Z,83.22
2018-06-05T03:33:26.632Z,83.85
2018-06-05T03:35:57.346Z,84.46
2018-06-05T03:38:27.276Z,85.06
2018-06-05T03:40:57.200Z,85.27
2018-06-05T03:43:27.032Z,85.05
2018-06-05T03:45:56.959Z,85.66
2018-06-05T03:48:26.799Z,85.60
2018-06-05T03:50:56.568Z,85.88
2018-06-05T03:53:26.433Z,86.31
2018-06-05T03:55:56.285Z,85.92
2018-06-05T03:58:25.945Z,85.42
2018-06-05T04:00:56.126Z,86.03
2018-06-05T04:03:25.839Z,85.92
2018-06-05T04:05:55.651Z,85.88
2018-06-05T04:08:25.479Z,86.31
2018-06-05T04:10:55.182Z,85.66
2018-06-05T04:13:25.199Z,86.49
2018-06-05T04:15:54.893Z,86.17
2018-06-05T04:18:24.690Z,86.69
2018-06-05T04:20:54.575Z,86.83
2018-06-05T04:23:25.287Z,86.85
2018-06-05T04:25:55.492Z,86.61
2018-06-05T04:28:25.427Z,86.91
2018-06-05T04:30:55.463Z,85.54
2018-06-05T04:33:25.098Z,86.51
2018-06-05T04:35:56.081Z,86.03
2018-06-05T04:38:26.178Z,85.85
2018-06-05T04:40:56.370Z,85.47
2018-06-05T04:43:26.569Z,86.05
2018-06-05T04:45:56.630Z,85.70
2018-06-05T04:48:26.613Z,85.98
2018-06-05T04:50:56.531Z,86.15
2018-06-05T04:53:26.522Z,85.78
2018-06-05T04:55:56.387Z,85.42
2018-06-05T04:58:26.064Z,83.17
2018-06-05T05:00:55.833Z,84.35
2018-06-05T05:03:25.836Z,84.66
2018-06-05T05:05:55.496Z,84.54
2018-06-05T05:08:25.580Z,82.14
2018-06-05T05:10:55.650Z,83.46
2018-06-05T05:13:25.498Z,81.74
2018-06-05T05:15:55.390Z,83.73
2018-06-05T05:18:25.233Z,81.29
2018-06-05T05:20:55.023Z,82.11
2018-06-05T05:23:25.082Z,82.00
2018-06-05T05:25:55.462Z,80.72
2018-06-05T05:28:25.304Z,82.07
2018-06-05T05:30:55.308Z,78.77
2018-06-05T05:33:25.100Z,79.35
2018-06-05T05:35:54.940Z,78.17
2018-06-05T05:38:24.826Z,78.79
2018-06-05T05:40:54.571Z,78.15
2018-06-05T05:43:24.611Z,77.32
2018-06-05T05:45:54.313Z,78.33
2018-06-05T05:48:24.235Z,77.52
2018-06-05T05:50:54.237Z,77.49
2018-06-05T05:53:23.974Z,77.92
2018-06-05T05:55:53.894Z,78.01
2018-06-05T05:58:23.585Z,76.49
2018-06-05T06:00:54.258Z,75.28
2018-06-05T06:03:25.226Z,75.20
2018-06-05T06:05:55.971Z,76.05
2018-06-05T06:08:25.867Z,74.82
2018-06-05T06:10:55.853Z,74.67
2018-06-05T06:13:25.902Z,75.26
2018-06-05T06:15:55.651Z,74.33
2018-06-05T06:18:25.457Z,74.79
2018-06-05T06:20:55.546Z,74.25
2018-06-05T06:23:25.387Z,74.80
2018-06-05T06:25:55.663Z,73.97
2018-06-05T06:28:25.698Z,73.96
2018-06-05T06:30:55.517Z,72.56
2018-06-05T06:33:25.356Z,73.79
2018-06-05T06:35:55.191Z,71.93
2018-06-05T06:38:25.249Z,71.54
2018-06-05T06:40:55.930Z,72.36
2018-06-05T06:43:25.631Z,71.49
2018-06-05T06:45:55.532Z,73.09
2018-06-05T06:48:25.371Z,72.35
2018-06-05T06:50:55.376Z,71.73
2018-06-05T06:53:25.173Z,72.20
2018-06-05T06:55:55.115Z,71.34
2018-06-05T06:58:24.717Z,70.78
2018-06-05T07:00:54.550Z,71.45
2018-06-05T07:03:24.449Z,70.86
2018-06-05T07:05:54.250Z,71.49
2018-06-05T07:08:24.100Z,71.67
2018-06-05T07:10:54.159Z,72.90
2018-06-05T07:13:23.912Z,73.00
2018-06-05T07:15:54.692Z,72.01
2018-06-05T07:18:24.552Z,71.98
2018-06-05T07:20:55.353Z,73.64
2018-06-05T07:23:25.829Z,73.99
2018-06-05T07:25:56.017Z,74.03
2018-06-05T07:28:25.893Z,74.99
2018-06-05T07:30:56.250Z,73.69
2018-06-05T07:33:26.270Z,73.66
2018-06-05T07:35:56.090Z,74.62
2018-06-05T07:38:25.903Z,72.08
2018-06-05T07:40:56.022Z,71.60
2018-06-05T07:43:25.630Z,70.53
2018-06-05T07:45:55.522Z,70.20
2018-06-05T07:48:25.383Z,70.70
2018-06-05T07:50:55.089Z,70.64
2018-06-05T07:53:24.875Z,71.67
2018-06-05T07:55:54.547Z,69.76
2018-06-05T07:58:24.290Z,69.56
2018-06-05T08:00:54.051Z,70.96
2018-06-05T08:03:23.942Z,69.29
2018-06-05T08:05:53.780Z,69.59
2018-06-05T08:08:23.392Z,68.92
2018-06-05T08:10:53.221Z,67.83
2018-06-05T08:13:23.033Z,67.70
2018-06-05T08:15:52.696Z,68.98
2018-06-05T08:18:22.685Z,69.08
2018-06-05T08:20:52.468Z,68.05
2018-06-05T08:23:22.375Z,67.83
2018-06-05T08:25:52.529Z,67.96
2018-06-05T08:28:22.521Z,68.89
2018-06-05T08:30:52.580Z,68.58
2018-06-05T08:33:22.556Z,66.96
2018-06-05T08:35:52.369Z,68.88
2018-06-05T08:38:22.057Z,66.07
2018-06-05T08:40:52.174Z,66.83
2018-06-05T08:43:21.944Z,67.25
2018-06-05T08:45:51.594Z,66.23
2018-06-05T08:48:21.474Z,67.18
2018-06-05T08:50:51.369Z,65.22
2018-06-05T08:53:21.895Z,66.19
2018-06-05T08:55:52.626Z,67.13
2018-06-05T08:58:22.349Z,64.82
2018-06-05T09:00:52.137Z,65.36
2018-06-05T09:03:22.081Z,64.47
2018-06-05T09:05:52.019Z,64.96
2018-06-05T09:08:22.028Z,65.88
2018-06-05T09:10:52.250Z,67.15
2018-06-05T09:13:22.161Z,65.94
2018-06-05T09:15:52.010Z,67.23
2018-06-05T09:18:22.014Z,64.84
2018-06-05T09:20:51.965Z,64.19
2018-06-05T09:23:21.739Z,63.94
2018-06-05T09:25:51.540Z,62.44
2018-06-05T09:28:21.467Z,63.52
2018-06-05T09:30:51.430Z,63.23
2018-06-05T09:33:21.138Z,64.01
2018-06-05T09:35:51.394Z,62.77
2018-06-05T09:38:21.310Z,63.17
2018-06-05T09:40:51.035Z,61.17
2018-06-05T09:43:20.627Z,63.62
2018-06-05T09:45:50.786Z,62.51
2018-06-05T09:48:20.618Z,59.27
2018-06-05T09:50:50.735Z,58.72
2018-06-05T09:53:21.275Z,59.01
2018-06-05T09:55:51.714Z,60.50
2018-06-05T09:58:21.916Z,58.53
2018-06-05T10:00:52.170Z,55.66
2018-06-05T10:03:22.737Z,56.38
2018-06-05T10:05:53.160Z,54.79
2018-06-05T10:08:23.393Z,57.47
2018-06-05T10:10:53.828Z,53.93
2018-06-05T10:13:23.876Z,54.31
2018-06-05T10:15:54.155Z,55.29
2018-06-05T10:18:24.716Z,56.30
2018-06-05T10:20:55.097Z,57.79
2018-06-05T10:23:25.517Z,61.49
2018-06-05T10:25:55.659Z,53.75
2018-06-05T10:28:25.928Z,52.54
2018-06-05T10:30:56.388Z,54.25
2018-06-05T10:33:26.521Z,54.44
2018-06-05T10:35:56.763Z,55.61
2018-06-05T10:38:26.854Z,54.57
2018-06-05T10:40:56.920Z,55.12
2018-06-05T10:43:28.087Z,53.38
2018-06-05T10:45:58.299Z,53.17
2018-06-05T10:48:28.508Z,52.60
2018-06-05T10:50:58.748Z,52.02
2018-06-05T10:53:28.860Z,54.47
2018-06-05T10:55:59.108Z,51.17
2018-06-05T10:58:29.130Z,51.96
2018-06-05T11:00:59.613Z,48.92
2018-06-05T11:03:29.884Z,52.51
2018-06-05T11:06:00.049Z,49.31
2018-06-05T11:08:30.282Z,48.64
2018-06-05T11:11:00.483Z,48.11
2018-06-05T11:13:30.869Z,51.19
2018-06-05T11:16:01.049Z,48.59
2018-06-05T11:18:31.318Z,48.93
2018-06-05T11:21:01.803Z,47.89
2018-06-05T11:23:34.871Z,48.06
2018-06-05T11:26:04.744Z,46.82
2018-06-05T11:28:34.618Z,45.89
2018-06-05T11:31:04.500Z,47.35
2018-06-05T11:33:34.212Z,46.49
2018-06-05T11:36:04.751Z,44.56
2018-06-05T11:38:34.566Z,44.45
2018-06-05T11:41:04.556Z,45.66
2018-06-05T11:43:34.425Z,43.49
2018-06-05T11:46:04.215Z,43.34
2018-06-05T11:48:34.339Z,44.03
2018-06-05T11:51:04.190Z,43.39
2018-06-05T11:53:34.050Z,44.14
2018-06-05T11:56:03.848Z,44.69
2018-06-05T11:58:33.810Z,45.47
2018-06-05T12:01:03.783Z,45.38
2018-06-05T12:03:33.725Z,42.62
2018-06-05T12:06:03.632Z,43.03
2018-06-05T12:08:33.404Z,42.89
2018-06-05T12:11:03.646Z,40.89
2018-06-05T12:13:33.486Z,38.36
2018-06-05T12:16:03.287Z,38.89
2018-06-05T12:18:33.020Z,38.86
2018-06-05T12:21:02.817Z,40.56
2018-06-05T12:23:32.490Z,42.95
2018-06-05T12:26:02.300Z,42.14
2018-06-05T12:28:32.194Z,42.87
2018-06-05T12:31:02.049Z,42.41
2018-06-05T12:33:32.019Z,41.73
2018-06-05T12:36:02.656Z,39.67
2018-06-05T12:38:33.076Z,40.12
2018-06-05T12:41:02.764Z,39.01
2018-06-05T12:43:32.815Z,38.32
2018-06-05T12:46:09.496Z,39.92
2018-06-05T12:48:40.384Z,42.78
2018-06-05T12:51:10.307Z,40.38
2018-06-05T12:53:41.377Z,41.60
2018-06-05T12:56:12.136Z,40.50
2018-06-05T12:58:41.799Z,39.86
2018-06-05T13:01:11.481Z,39.53
2018-06-05T13:03:41.271Z,39.16
2018-06-05T13:06:10.935Z,38.00
2018-06-05T13:08:40.846Z,40.39
2018-06-05T13:11:11.090Z,42.88
2018-06-05T13:13:40.893Z,42.75
2018-06-05T13:16:10.937Z,41.35
2018-06-05T13:18:40.600Z,40.09
2018-06-05T13:21:10.388Z,37.51
2018-06-05T13:23:40.203Z,38.06
2018-06-05T13:26:10.141Z,37.39
2018-06-05T13:28:40.107Z,36.99
2018-06-05T13:31:10.077Z,38.78
2018-06-05T13:33:39.843Z,39.23
2018-06-05T13:36:09.502Z,41.19
2018-06-05T13:38:41.509Z,39.40
2018-06-05T13:41:11.345Z,37.06
2018-06-05T13:43:41.745Z,37.19
2018-06-05T13:46:11.410Z,37.01
2018-06-05T13:48:41.267Z,35.62
2018-06-05T13:51:12.282Z,36.17
2018-06-05T13:53:42.201Z,37.69
2018-06-05T13:56:12.415Z,35.78
2018-06-05T13:58:42.215Z,35.32
2018-06-05T14:01:12.252Z,35.83
2018-06-05T14:03:42.046Z,34.49
2018-06-05T14:06:11.984Z,35.55
2018-06-05T14:08:41.709Z,35.93
2018-06-05T14:11:11.514Z,36.85
2018-06-05T14:13:41.206Z,36.00
2018-06-05T14:16:13.060Z,36.09
2018-06-05T14:18:42.858Z,35.36
2018-06-05T14:21:12.850Z,36.98
2018-06-05T14:23:42.882Z,39.61
2018-06-05T14:26:12.760Z,40.45
2018-06-05T14:28:42.522Z,38.43
2018-06-05T14:31:12.533Z,37.21
2018-06-05T14:33:42.385Z,37.75
2018-06-05T14:36:12.285Z,40.46
2018-06-05T14:38:42.105Z,40.35
2018-06-05T14:41:12.327Z,40.98
2018-06-05T14:43:42.320Z,41.24
2018-06-05T14:46:12.171Z,40.73
2018-06-05T14:48:42.088Z,41.42
2018-06-05T14:51:12.060Z,42.34
2018-06-05T14:53:41.880Z,41.11
2018-06-05T14:56:11.738Z,41.35
2018-06-05T14:58:43.065Z,41.67
2018-06-05T15:01:13.160Z,41.78
2018-06-05T15:03:43.087Z,40.94
2018-06-05T15:06:12.832Z,40.91
2018-06-05T15:08:42.664Z,41.08
2018-06-05T15:11:12.628Z,40.85
2018-06-05T15:13:42.359Z,40.82
2018-06-05T15:16:12.362Z,40.88
2018-06-05T15:18:42.173Z,39.72
2018-06-05T15:21:12.220Z,39.50
2018-06-05T15:23:42.233Z,38.27
2018-06-05T15:26:12.124Z,39.57
2018-06-05T15:28:42.201Z,39.81
2018-06-05T15:31:13.186Z,41.64
2018-06-05T15:33:43.163Z,41.13
2018-06-05T15:36:13.125Z,39.10
2018-06-05T15:38:43.245Z,37.91
2018-06-05T15:41:13.056Z,37.81
2018-06-05T15:43:44.119Z,35.57
2018-06-05T15:46:14.160Z,35.12
2018-06-05T15:48:44.041Z,33.02
2018-06-05T15:51:13.923Z,33.66
2018-06-05T15:53:43.813Z,33.85
2018-06-05T15:56:13.824Z,32.40
2018-06-05T15:58:44.118Z,32.14
2018-06-05T16:01:13.963Z,32.10
2018-06-05T16:03:43.814Z,31.02
2018-06-05T16:06:13.564Z,30.20
2018-06-05T16:08:43.296Z,30.58
2018-06-05T16:11:13.136Z,29.01
2018-06-05T16:13:43.969Z,29.34
2018-06-05T16:16:13.938Z,29.53
2018-06-05T16:18:43.924Z,27.71
2018-06-05T16:21:13.900Z,27.31
2018-06-05T16:23:43.721Z,28.19
2018-06-05T16:26:14.693Z,28.44
2018-06-05T16:28:44.509Z,27.47
2018-06-05T16:31:14.316Z,29.57
2018-06-05T16:33:44.185Z,28.38
2018-06-05T16:36:14.239Z,27.71
2018-06-05T16:38:43.976Z,28.86
2018-06-05T16:41:13.852Z,28.44
2018-06-05T16:43:43.778Z,29.47
2018-06-05T16:46:13.429Z,28.71
2018-06-05T16:48:43.257Z,28.70
2018-06-05T16:51:13.324Z,29.39
2018-06-05T16:56:37.755Z,30.41
2018-06-05T16:59:07.808Z,31.34
2018-06-05T17:01:37.665Z,33.13
2018-06-05T17:04:07.708Z,34.83
2018-06-05T17:06:37.509Z,35.42
2018-06-05T17:09:08.780Z,35.28
2018-06-05T17:11:38.749Z,34.54
2018-06-05T17:14:09.330Z,35.90
2018-06-05T17:16:39.029Z,36.21
2018-06-05T17:19:08.950Z,36.92
2018-06-05T17:21:38.885Z,37.22
2018-06-05T17:24:08.603Z,38.43
2018-06-05T17:26:38.992Z,39.03
2018-06-05T17:29:08.936Z,40.01
2018-06-05T17:31:38.884Z,41.60
2018-06-05T17:34:08.796Z,42.62
2018-06-05T17:36:38.446Z,43.28
2018-06-05T17:39:09.860Z,42.63
2018-06-05T17:41:39.798Z,42.43
2018-06-05T17:44:09.709Z,43.55
2018-06-05T17:46:39.628Z,44.42
2018-06-05T17:49:09.844Z,44.39
2018-06-05T17:51:40.067Z,44.93
2018-06-05T17:54:09.744Z,44.94
2018-06-05T17:56:39.665Z,45.51
2018-06-05T17:59:09.607Z,45.08
2018-06-05T18:01:39.457Z,45.63
2018-06-05T18:04:09.440Z,45.78
2018-06-05T18:06:39.460Z,46.69
2018-06-05T18:09:09.859Z,46.87
2018-06-05T18:11:39.454Z,47.41
2018-06-05T18:14:09.401Z,48.28
2018-06-05T18:16:39.202Z,48.38
2018-06-05T18:19:09.401Z,49.13
2018-06-05T18:21:40.491Z,50.82
2018-06-05T18:24:10.485Z,54.20
2018-06-05T18:26:40.346Z,53.24
2018-06-05T18:29:10.462Z,53.50
2018-06-05T18:31:40.493Z,55.32
2018-06-05T18:34:10.445Z,56.90
2018-06-05T18:36:40.281Z,56.09
2018-06-05T18:39:12.631Z,56.83
2018-06-05T18:41:42.419Z,57.09
2018-06-05T18:44:12.255Z,57.80
2018-06-05T18:46:42.224Z,57.87
2018-06-05T18:49:12.284Z,58.69
2018-06-05T18:51:42.092Z,59.82
2018-06-05T18:54:11.984Z,60.02
2018-06-05T18:56:41.956Z,59.89
2018-06-05T18:59:12.136Z,60.24
2018-06-05T19:01:42.108Z,60.62
2018-06-05T19:04:11.976Z,61.96
2018-06-05T19:06:41.707Z,61.99
2018-06-05T19:09:11.807Z,62.13
2018-06-05T19:11:41.559Z,62.16
2018-06-05T19:14:11.501Z,62.08
2018-06-05T19:16:41.391Z,62.79
2018-06-05T19:19:11.195Z,62.97
2018-06-05T19:21:41.257Z,63.34
2018-06-05T19:24:11.255Z,63.62
2018-06-05T19:26:41.154Z,64.39
2018-06-05T19:29:10.930Z,63.96
2018-06-05T19:31:40.778Z,64.21
2018-06-05T19:34:10.789Z,64.34
2018-06-05T19:36:40.750Z,64.98
2018-06-05T19:39:10.954Z,64.80
2018-06-05T19:41:41.028Z,64.84
2018-06-05T19:44:10.960Z,66.31
2018-06-05T19:46:41.027Z,65.94
2018-06-05T19:49:10.657Z,65.41
2018-06-05T19:51:40.636Z,65.67
2018-06-05T19:54:11.873Z,65.78
2018-06-05T19:56:41.792Z,66.02
2018-06-05T19:59:11.695Z,66.59
2018-06-05T20:01:42.119Z,67.46
2018-06-05T20:04:11.975Z,66.77
2018-06-05T20:06:41.773Z,67.57
2018-06-05T20:09:11.759Z,67.92
2018-06-05T20:11:41.792Z,68.39
2018-06-05T20:14:11.579Z,68.09
2018-06-05T20:16:41.641Z,68.80
2018-06-05T20:19:11.365Z,68.18
2018-06-05T20:21:41.301Z,68.77
2018-06-05T20:24:11.352Z,68.80
2018-06-05T20:26:41.337Z,69.44
2018-06-05T20:29:11.247Z,69.05
2018-06-05T20:31:41.208Z,69.04
2018-06-05T20:34:10.922Z,69.36
2018-06-05T20:36:40.904Z,69.72
2018-06-05T20:39:14.355Z,69.94
2018-06-05T20:41:45.282Z,69.74
2018-06-05T20:44:15.094Z,70.36
2018-06-05T20:46:44.763Z,70.60
2018-06-05T20:49:14.736Z,70.07
2018-06-05T20:51:44.703Z,70.64
2018-06-05T20:54:14.687Z,70.81
2018-06-05T20:56:44.416Z,71.57
2018-06-05T20:59:14.255Z,72.15
2018-06-05T21:01:44.204Z,72.69
2018-06-05T21:04:14.171Z,74.09
2018-06-05T21:06:43.924Z,74.71
2018-06-05T21:09:13.745Z,74.53
2018-06-05T21:11:43.562Z,74.97
2018-06-05T21:14:13.376Z,75.17
2018-06-05T21:16:43.321Z,75.49
2018-06-05T21:19:13.308Z,75.55
2018-06-05T21:21:42.984Z,75.82
2018-06-05T21:24:12.931Z,76.77
2018-06-05T21:26:42.588Z,76.86
2018-06-05T21:29:12.668Z,76.61
2018-06-05T21:31:42.801Z,76.41
2018-06-05T21:34:12.750Z,76.43
2018-06-05T21:36:42.539Z,76.05
2018-06-05T21:39:12.407Z,75.67
2018-06-05T21:41:42.249Z,75.21
2018-06-05T21:44:12.892Z,74.63
2018-06-05T21:46:42.748Z,74.04
2018-06-05T21:49:12.655Z,72.68
2018-06-05T21:51:42.493Z,71.83
2018-06-05T21:54:12.844Z,71.18
2018-06-05T21:56:42.658Z,69.84
2018-06-05T21:59:12.462Z,69.64
2018-06-05T22:01:42.591Z,69.32
2018-06-05T22:04:12.238Z,68.53
2018-06-05T22:06:41.918Z,67.15
2018-06-05T22:09:11.880Z,65.26
2018-06-05T22:11:42.448Z,64.94
2018-06-05T22:14:12.005Z,64.12
2018-06-05T22:16:41.926Z,61.40
2018-06-05T22:19:11.679Z,59.70
2018-06-05T22:21:41.465Z,58.43
2018-06-05T22:24:11.521Z,57.87
2018-06-05T22:26:41.998Z,56.71
2018-06-05T22:29:12.039Z,57.47
2018-06-05T22:31:41.983Z,57.62
2018-06-05T22:34:11.791Z,57.98
2018-06-05T22:36:41.630Z,58.00
2018-06-05T22:39:12.043Z,56.90
2018-06-05T22:41:41.760Z,56.18
2018-06-05T22:44:12.604Z,55.71
2018-06-05T22:46:42.452Z,55.41
2018-06-05T22:49:12.247Z,56.08
2018-06-05T22:51:42.088Z,56.65
2018-06-05T22:54:11.648Z,56.34
2018-06-05T22:56:41.257Z,57.20
2018-06-05T22:59:11.068Z,57.59
2018-06-05T23:01:40.908Z,57.48
2018-06-05T23:04:10.443Z,57.59
2018-06-05T23:06:40.482Z,56.84
2018-06-05T23:09:10.591Z,56.32
2018-06-05T23:12:07.091Z,56.58
2018-06-05T23:15:00.765Z,56.66
2018-06-05T23:17:33.824Z,56.99
2018-06-05T23:20:03.585Z,56.49
2018-06-05T23:22:40.074Z,56.89
2018-06-05T23:25:10.047Z,57.38
2018-06-05T23:27:40.970Z,57.63
2018-06-05T23:30:11.066Z,58.87
2018-06-05T23:32:40.743Z,59.08
2018-06-05T23:35:10.550Z,59.38
2018-06-05T23:37:40.464Z,59.49
2018-06-05T23:40:10.333Z,60.39
2018-06-05T23:42:40.116Z,59.92
2018-06-05T23:45:09.926Z,60.63
2018-06-05T23:47:39.624Z,60.47
2018-06-05T23:50:09.070Z,60.86
2018-06-05T23:52:39.037Z,61.15
2018-06-05T23:55:08.649Z,61.15
2018-06-05T23:57:38.520Z,61.47
